Terminal Aerodrome Forecast
Issued by NWS

Current Version | Previous Version | Text Only | Print | Product List | Glossary On
Versions: 1 2 3 4 5 6 7 8 9 10 11 12 13 14 15 16 17 18 19 20 21 22 23 24 25 26
551
FTUS45 KPSR 262326
TAFSDL
TAF
KSDL 262326Z 2700/2724 25010KT P6SM FEW100
     FM270400 VRB03KT P6SM SKC
     FM271900 25006KT P6SM SKC=

USA.gov is the U.S. government's official web portal to all federal, state and local government web resources and services.